createdAt,value
2023-01-30T00:00:38.466Z,654.0000
2023-01-30T00:01:38.725Z,654.0000
2023-01-30T00:02:41.057Z,656.0000
2023-01-30T00:03:43.427Z,655.0000
2023-01-30T00:04:45.864Z,656.0000
2023-01-30T00:05:48.184Z,655.0000
2023-01-30T00:06:48.382Z,659.0000
2023-01-30T00:07:50.756Z,658.0000
2023-01-30T00:08:53.221Z,657.0000
2023-01-30T00:09:55.652Z,659.0000
2023-01-30T00:10:55.900Z,656.0000
2023-01-30T00:11:58.286Z,658.0000
2023-01-30T00:13:00.669Z,657.0000
2023-01-30T00:14:03.045Z,657.0000
2023-01-30T00:15:03.282Z,652.0000
2023-01-30T00:16:05.651Z,654.0000
2023-01-30T00:17:07.925Z,654.0000
2023-01-30T00:18:10.322Z,650.0000
2023-01-30T00:19:10.528Z,647.0000
2023-01-30T00:20:15.508Z,651.0000
2023-01-30T00:21:15.441Z,649.0000
2023-01-30T00:22:15.742Z,650.0000
2023-01-30T00:23:18.181Z,653.0000
2023-01-30T00:24:20.730Z,652.0000
2023-01-30T00:25:21.255Z,652.0000
2023-01-30T00:26:23.375Z,651.0000
2023-01-30T00:27:25.728Z,650.0000
2023-01-30T00:28:28.152Z,649.0000
2023-01-30T00:29:30.564Z,649.0000
2023-01-30T00:30:33.034Z,648.0000
2023-01-30T00:31:35.434Z,648.0000
2023-01-30T00:32:35.696Z,646.0000
2023-01-30T00:33:38.145Z,644.0000
2023-01-30T00:34:40.604Z,642.0000
2023-01-30T00:35:40.914Z,642.0000
2023-01-30T00:36:43.340Z,641.0000
2023-01-30T00:37:45.766Z,641.0000
2023-01-30T00:38:48.225Z,640.0000
2023-01-30T00:39:48.509Z,643.0000
2023-01-30T00:40:51.100Z,647.0000
2023-01-30T00:41:53.390Z,646.0000
2023-01-30T00:42:53.660Z,647.0000
2023-01-30T00:43:56.064Z,646.0000
2023-01-30T00:44:58.453Z,645.0000
2023-01-30T00:46:00.985Z,642.0000
2023-01-30T00:47:01.163Z,643.0000
2023-01-30T00:48:03.629Z,642.0000
2023-01-30T00:49:06.036Z,641.0000
2023-01-30T00:50:08.504Z,639.0000
2023-01-30T00:51:08.974Z,641.0000
2023-01-30T00:52:11.268Z,643.0000
2023-01-30T00:53:13.762Z,642.0000
2023-01-30T00:54:14.044Z,640.0000
2023-01-30T00:55:16.754Z,636.0000
2023-01-30T00:56:18.827Z,642.0000
2023-01-30T00:57:21.202Z,644.0000
2023-01-30T00:58:21.448Z,646.0000
2023-01-30T00:59:23.852Z,647.0000
2023-01-30T01:00:26.242Z,644.0000
2023-01-30T01:01:28.777Z,648.0000
2023-01-30T01:02:28.887Z,646.0000
2023-01-30T01:03:31.303Z,641.0000
2023-01-30T01:04:33.700Z,638.0000
2023-01-30T01:05:34.005Z,641.0000
2023-01-30T01:06:34.337Z,639.0000
2023-01-30T01:07:36.777Z,637.0000
2023-01-30T01:08:39.244Z,638.0000
2023-01-30T01:09:41.680Z,635.0000
2023-01-30T01:10:44.134Z,636.0000
2023-01-30T01:11:44.462Z,636.0000
2023-01-30T01:12:46.883Z,639.0000
2023-01-30T01:13:49.349Z,638.0000
2023-01-30T01:14:51.745Z,636.0000
2023-01-30T01:15:52.016Z,634.0000
2023-01-30T01:16:54.475Z,634.0000
2023-01-30T01:17:56.882Z,636.0000
2023-01-30T01:18:57.165Z,634.0000
2023-01-30T01:19:59.613Z,631.0000
2023-01-30T01:21:02.043Z,632.0000
2023-01-30T01:22:04.515Z,632.0000
2023-01-30T01:23:04.761Z,631.0000
2023-01-30T01:24:07.217Z,629.0000
2023-01-30T01:25:09.650Z,630.0000
2023-01-30T01:26:12.076Z,629.0000
2023-01-30T01:27:12.362Z,630.0000
2023-01-30T01:28:14.788Z,631.0000
2023-01-30T01:29:17.248Z,628.0000
2023-01-30T01:30:17.541Z,625.0000
2023-01-30T01:31:20.055Z,623.0000
2023-01-30T01:32:22.497Z,622.0000
2023-01-30T01:33:22.722Z,621.0000
2023-01-30T01:34:25.143Z,622.0000
2023-01-30T01:35:27.591Z,618.0000
2023-01-30T01:36:52.734Z,616.0000
2023-01-30T01:37:30.309Z,615.0000
2023-01-30T01:38:32.735Z,616.0000
2023-01-30T01:39:35.169Z,615.0000
2023-01-30T01:40:35.468Z,616.0000
2023-01-30T01:41:37.907Z,614.0000
2023-01-30T01:42:40.396Z,615.0000
2023-01-30T01:43:42.801Z,614.0000
2023-01-30T01:44:43.083Z,615.0000
2023-01-30T01:45:45.523Z,611.0000
2023-01-30T01:46:47.919Z,611.0000
2023-01-30T01:47:50.359Z,612.0000
2023-01-30T01:48:52.734Z,608.0000
2023-01-30T01:49:55.135Z,608.0000
2023-01-30T01:50:55.424Z,606.0000
2023-01-30T01:51:57.828Z,607.0000
2023-01-30T01:53:00.324Z,608.0000
2023-01-30T01:54:02.660Z,608.0000
2023-01-30T01:55:02.976Z,607.0000
2023-01-30T01:56:05.352Z,610.0000
2023-01-30T01:57:07.762Z,610.0000
2023-01-30T01:58:10.159Z,611.0000
2023-01-30T01:59:10.359Z,610.0000
2023-01-30T02:00:11.585Z,611.0000
2023-01-30T02:01:14.044Z,611.0000
2023-01-30T02:02:14.182Z,612.0000
2023-01-30T02:03:16.569Z,610.0000
2023-01-30T02:04:18.876Z,613.0000
2023-01-30T02:05:19.501Z,613.0000
2023-01-30T02:06:21.465Z,614.0000
2023-01-30T02:07:23.842Z,614.0000
2023-01-30T02:08:24.118Z,616.0000
2023-01-30T02:09:26.535Z,614.0000
2023-01-30T02:10:28.958Z,612.0000
2023-01-30T02:11:29.246Z,614.0000
2023-01-30T02:12:31.687Z,611.0000
2023-01-30T02:13:34.237Z,609.0000
2023-01-30T02:14:36.481Z,609.0000
2023-01-30T02:15:38.850Z,608.0000
2023-01-30T02:16:39.073Z,608.0000
2023-01-30T02:17:41.590Z,606.0000
2023-01-30T02:18:43.996Z,603.0000
2023-01-30T02:19:46.401Z,605.0000
2023-01-30T02:20:48.827Z,604.0000
2023-01-30T02:21:49.050Z,605.0000
2023-01-30T02:22:51.459Z,603.0000
2023-01-30T02:23:53.925Z,604.0000
2023-01-30T02:24:56.338Z,602.0000
2023-01-30T02:25:58.798Z,603.0000
2023-01-30T02:26:59.060Z,605.0000
2023-01-30T02:28:01.473Z,603.0000
2023-01-30T02:29:04.027Z,601.0000
2023-01-30T02:30:06.353Z,600.0000
2023-01-30T02:31:08.929Z,595.0000
2023-01-30T02:32:11.262Z,596.0000
2023-01-30T02:33:13.690Z,597.0000
2023-01-30T02:34:13.974Z,597.0000
2023-01-30T02:35:16.837Z,596.0000
2023-01-30T02:36:18.731Z,596.0000
2023-01-30T02:37:21.132Z,597.0000
2023-01-30T02:38:23.515Z,594.0000
2023-01-30T02:39:23.783Z,594.0000
2023-01-30T02:40:26.150Z,595.0000
2023-01-30T02:41:28.536Z,596.0000
2023-01-30T02:42:28.773Z,594.0000
2023-01-30T02:43:31.122Z,592.0000
2023-01-30T02:44:33.550Z,594.0000
2023-01-30T02:45:33.750Z,595.0000
2023-01-30T02:46:36.156Z,594.0000
2023-01-30T02:47:38.523Z,594.0000
2023-01-30T02:48:38.709Z,592.0000
2023-01-30T02:49:41.114Z,593.0000
2023-01-30T02:50:43.486Z,591.0000
2023-01-30T02:51:43.739Z,589.0000
2023-01-30T02:52:46.095Z,588.0000
2023-01-30T02:53:48.473Z,589.0000
2023-01-30T02:54:50.893Z,587.0000
2023-01-30T02:55:53.239Z,588.0000
2023-01-30T02:56:53.513Z,590.0000
2023-01-30T02:57:55.884Z,593.0000
2023-01-30T02:58:58.262Z,595.0000
2023-01-30T02:59:58.564Z,594.0000
2023-01-30T03:01:00.786Z,596.0000
2023-01-30T03:02:03.112Z,598.0000
2023-01-30T03:03:03.384Z,597.0000
2023-01-30T03:04:05.797Z,596.0000
2023-01-30T03:05:08.357Z,594.0000
2023-01-30T03:06:08.493Z,591.0000
2023-01-30T03:07:10.903Z,590.0000
2023-01-30T03:08:13.288Z,591.0000
2023-01-30T03:09:15.672Z,592.0000
2023-01-30T03:10:18.135Z,588.0000
2023-01-30T03:11:18.420Z,584.0000
2023-01-30T03:12:20.802Z,585.0000
2023-01-30T03:13:23.226Z,587.0000
2023-01-30T03:14:25.671Z,587.0000
2023-01-30T03:15:28.259Z,586.0000
2023-01-30T03:16:28.362Z,588.0000
2023-01-30T03:17:30.798Z,587.0000
2023-01-30T03:18:33.226Z,586.0000
2023-01-30T03:19:35.662Z,587.0000
2023-01-30T03:20:38.120Z,585.0000
2023-01-30T03:21:38.358Z,584.0000
2023-01-30T03:22:40.759Z,585.0000
2023-01-30T03:23:43.152Z,586.0000
2023-01-30T03:24:45.523Z,587.0000
2023-01-30T03:25:47.946Z,589.0000
2023-01-30T03:26:48.165Z,590.0000
2023-01-30T03:27:50.551Z,589.0000
2023-01-30T03:28:52.893Z,586.0000
2023-01-30T03:29:53.115Z,586.0000
2023-01-30T03:30:55.620Z,587.0000
2023-01-30T03:31:57.839Z,586.0000
2023-01-30T03:32:58.030Z,587.0000
2023-01-30T03:34:00.427Z,587.0000
2023-01-30T03:35:02.796Z,587.0000
2023-01-30T03:36:03.007Z,588.0000
2023-01-30T03:37:05.347Z,587.0000
2023-01-30T03:38:07.747Z,591.0000
2023-01-30T03:39:07.988Z,591.0000
2023-01-30T03:40:10.408Z,591.0000
2023-01-30T03:41:12.844Z,590.0000
2023-01-30T03:42:13.070Z,590.0000
2023-01-30T03:43:15.473Z,596.0000
2023-01-30T03:44:17.927Z,598.0000
2023-01-30T03:45:20.579Z,604.0000
2023-01-30T03:46:22.863Z,607.0000
2023-01-30T03:47:23.008Z,607.0000
2023-01-30T03:48:25.440Z,610.0000
2023-01-30T03:49:27.829Z,614.0000
2023-01-30T03:50:30.188Z,617.0000
2023-01-30T03:51:32.566Z,623.0000
2023-01-30T03:52:32.816Z,628.0000
2023-01-30T03:53:35.183Z,633.0000
2023-01-30T03:54:37.523Z,638.0000
2023-01-30T03:55:37.727Z,643.0000
2023-01-30T03:56:40.161Z,646.0000
2023-01-30T03:57:42.515Z,646.0000
2023-01-30T03:58:42.768Z,645.0000
2023-01-30T03:59:45.187Z,651.0000
2023-01-30T04:00:47.597Z,655.0000
2023-01-30T04:01:47.892Z,650.0000
2023-01-30T04:02:50.258Z,652.0000
2023-01-30T04:03:52.644Z,654.0000
2023-01-30T04:04:55.071Z,653.0000
2023-01-30T04:05:57.432Z,656.0000
2023-01-30T04:06:57.703Z,655.0000
2023-01-30T04:08:00.137Z,659.0000
2023-01-30T04:09:02.523Z,658.0000
2023-01-30T04:10:04.941Z,671.0000
2023-01-30T04:11:07.357Z,685.0000
2023-01-30T04:12:07.653Z,689.0000
2023-01-30T04:13:09.991Z,698.0000
2023-01-30T04:14:12.336Z,699.0000
2023-01-30T04:15:12.609Z,703.0000
2023-01-30T04:16:14.988Z,708.0000
2023-01-30T04:17:17.386Z,710.0000
2023-01-30T04:18:17.582Z,716.0000
2023-01-30T04:19:19.972Z,716.0000
2023-01-30T04:20:22.339Z,719.0000
2023-01-30T04:21:22.532Z,722.0000
2023-01-30T04:22:25.044Z,721.0000
2023-01-30T04:23:27.320Z,724.0000
2023-01-30T04:24:29.702Z,725.0000
2023-01-30T04:25:32.092Z,726.0000
2023-01-30T04:26:32.435Z,727.0000
2023-01-30T04:27:34.740Z,728.0000
2023-01-30T04:28:37.093Z,732.0000
2023-01-30T04:29:37.331Z,735.0000
2023-01-30T04:30:39.751Z,737.0000
2023-01-30T04:31:42.033Z,737.0000
2023-01-30T04:32:42.240Z,736.0000
2023-01-30T04:33:44.563Z,735.0000
2023-01-30T04:34:46.905Z,736.0000
2023-01-30T04:35:49.298Z,736.0000
2023-01-30T04:36:51.665Z,733.0000
2023-01-30T04:37:54.063Z,729.0000
2023-01-30T04:38:54.271Z,729.0000
2023-01-30T04:39:56.641Z,728.0000
2023-01-30T04:40:59.007Z,727.0000
2023-01-30T04:41:59.233Z,727.0000
2023-01-30T04:43:01.712Z,730.0000
2023-01-30T04:44:03.954Z,730.0000
2023-01-30T04:45:04.202Z,729.0000
2023-01-30T04:46:06.621Z,729.0000
2023-01-30T04:47:08.983Z,729.0000
2023-01-30T04:48:09.249Z,730.0000
2023-01-30T04:49:11.617Z,735.0000
2023-01-30T04:50:14.022Z,732.0000
2023-01-30T04:51:16.446Z,734.0000
2023-01-30T04:52:18.891Z,730.0000
2023-01-30T04:53:19.227Z,726.0000
2023-01-30T04:54:21.624Z,725.0000
2023-01-30T04:55:21.924Z,727.0000
2023-01-30T04:56:24.373Z,723.0000
2023-01-30T04:57:26.799Z,724.0000
2023-01-30T04:58:27.120Z,721.0000
2023-01-30T04:59:29.403Z,720.0000
2023-01-30T05:00:31.912Z,722.0000
2023-01-30T05:01:32.148Z,717.0000
2023-01-30T05:02:34.577Z,718.0000
2023-01-30T05:03:34.846Z,719.0000
2023-01-30T05:04:37.208Z,717.0000
2023-01-30T05:05:39.660Z,717.0000
2023-01-30T05:06:39.931Z,716.0000
2023-01-30T05:07:42.393Z,712.0000
2023-01-30T05:08:46.930Z,713.0000
2023-01-30T05:09:47.261Z,707.0000
2023-01-30T05:10:49.663Z,705.0000
2023-01-30T05:11:49.924Z,700.0000
2023-01-30T05:12:52.331Z,705.0000
2023-01-30T05:13:54.784Z,707.0000
2023-01-30T05:14:57.164Z,704.0000
2023-01-30T05:15:59.589Z,705.0000
2023-01-30T05:16:59.972Z,706.0000
2023-01-30T05:18:02.302Z,706.0000
2023-01-30T05:19:04.817Z,704.0000
2023-01-30T05:20:07.146Z,705.0000
2023-01-30T05:21:09.574Z,705.0000
2023-01-30T05:22:09.866Z,704.0000
2023-01-30T05:23:12.338Z,702.0000
2023-01-30T05:24:12.760Z,701.0000
2023-01-30T05:25:15.035Z,702.0000
2023-01-30T05:26:17.452Z,699.0000
2023-01-30T05:27:17.613Z,698.0000
2023-01-30T05:28:20.029Z,698.0000
2023-01-30T05:29:22.441Z,697.0000
2023-01-30T05:30:22.740Z,697.0000
2023-01-30T05:31:24.999Z,698.0000
2023-01-30T05:32:27.354Z,701.0000
2023-01-30T05:33:27.531Z,701.0000
2023-01-30T05:34:30.048Z,699.0000
2023-01-30T05:35:32.289Z,697.0000
2023-01-30T05:36:32.538Z,696.0000
2023-01-30T05:37:34.941Z,696.0000
2023-01-30T05:38:37.294Z,696.0000
2023-01-30T05:39:37.584Z,696.0000
2023-01-30T05:40:39.798Z,696.0000
2023-01-30T05:41:42.186Z,697.0000
2023-01-30T05:42:42.429Z,695.0000
2023-01-30T05:43:44.861Z,693.0000
2023-01-30T05:44:47.338Z,700.0000
2023-01-30T05:45:49.698Z,699.0000
2023-01-30T05:46:52.066Z,699.0000
2023-01-30T05:47:53.611Z,701.0000
2023-01-30T05:48:54.820Z,702.0000
2023-01-30T05:49:57.340Z,700.0000
2023-01-30T05:50:57.493Z,700.0000
2023-01-30T05:51:59.914Z,705.0000
2023-01-30T05:53:00.183Z,708.0000
2023-01-30T05:54:02.598Z,704.0000
2023-01-30T05:55:05.014Z,704.0000
2023-01-30T05:56:05.297Z,707.0000
2023-01-30T05:57:07.666Z,707.0000
2023-01-30T05:58:10.065Z,707.0000
2023-01-30T05:59:10.344Z,705.0000
2023-01-30T06:00:12.791Z,706.0000
2023-01-30T06:01:15.138Z,708.0000
2023-01-30T06:02:17.477Z,708.0000
2023-01-30T06:03:19.880Z,708.0000
2023-01-30T06:04:20.060Z,710.0000
2023-01-30T06:05:22.528Z,714.0000
2023-01-30T06:06:24.895Z,721.0000
2023-01-30T06:07:25.158Z,728.0000
2023-01-30T06:08:27.564Z,731.0000
2023-01-30T06:09:29.992Z,734.0000
2023-01-30T06:10:32.470Z,736.0000
2023-01-30T06:11:34.880Z,732.0000
2023-01-30T06:12:35.157Z,731.0000
2023-01-30T06:13:37.575Z,731.0000
2023-01-30T06:14:39.959Z,733.0000
2023-01-30T06:15:42.426Z,728.0000
2023-01-30T06:16:44.768Z,730.0000
2023-01-30T06:17:44.928Z,732.0000
2023-01-30T06:18:47.331Z,730.0000
2023-01-30T06:19:49.707Z,733.0000
2023-01-30T06:20:50.005Z,732.0000
2023-01-30T06:21:52.346Z,734.0000
2023-01-30T06:22:54.753Z,736.0000
2023-01-30T06:23:55.017Z,737.0000
2023-01-30T06:24:57.425Z,738.0000
2023-01-30T06:25:59.912Z,738.0000
2023-01-30T06:27:02.282Z,738.0000
2023-01-30T06:28:04.835Z,737.0000
2023-01-30T06:29:07.148Z,738.0000
2023-01-30T06:30:09.547Z,739.0000
2023-01-30T06:31:10.005Z,741.0000
2023-01-30T06:32:12.297Z,743.0000
2023-01-30T06:33:14.710Z,746.0000
2023-01-30T06:34:17.137Z,749.0000
2023-01-30T06:35:20.036Z,751.0000
2023-01-30T06:36:19.868Z,757.0000
2023-01-30T06:37:22.277Z,758.0000
2023-01-30T06:38:26.154Z,759.0000
2023-01-30T06:39:27.174Z,756.0000
2023-01-30T06:40:29.610Z,753.0000
2023-01-30T06:41:32.051Z,752.0000
2023-01-30T06:42:34.416Z,754.0000
2023-01-30T06:43:34.668Z,757.0000
2023-01-30T06:44:37.082Z,760.0000
2023-01-30T06:45:39.375Z,762.0000
2023-01-30T06:46:39.641Z,763.0000
2023-01-30T06:47:41.970Z,760.0000
2023-01-30T06:48:44.319Z,758.0000
2023-01-30T06:49:44.537Z,757.0000
2023-01-30T06:50:46.903Z,759.0000
2023-01-30T06:51:49.281Z,761.0000
2023-01-30T06:52:49.531Z,761.0000
2023-01-30T06:53:53.330Z,759.0000
2023-01-30T06:54:54.298Z,761.0000
2023-01-30T06:55:54.469Z,760.0000
2023-01-30T06:56:56.985Z,759.0000
2023-01-30T06:57:59.204Z,760.0000
2023-01-30T06:58:59.422Z,759.0000
2023-01-30T07:00:01.798Z,760.0000
2023-01-30T07:01:04.168Z,762.0000
2023-01-30T07:02:04.504Z,760.0000
2023-01-30T07:03:06.772Z,757.0000
2023-01-30T07:04:09.179Z,758.0000
2023-01-30T07:05:09.424Z,760.0000
2023-01-30T07:06:11.795Z,759.0000
2023-01-30T07:07:14.247Z,760.0000
2023-01-30T07:08:14.422Z,760.0000
2023-01-30T07:09:16.809Z,761.0000
2023-01-30T07:10:19.193Z,763.0000
2023-01-30T07:11:19.430Z,761.0000
2023-01-30T07:12:21.888Z,759.0000
2023-01-30T07:13:24.159Z,755.0000
2023-01-30T07:14:24.394Z,755.0000
2023-01-30T07:15:26.814Z,755.0000
2023-01-30T07:16:29.349Z,753.0000
2023-01-30T07:17:31.548Z,751.0000
2023-01-30T07:18:33.864Z,750.0000
2023-01-30T07:19:36.223Z,748.0000
2023-01-30T07:20:38.628Z,749.0000
2023-01-30T07:21:40.996Z,746.0000
2023-01-30T07:22:41.339Z,742.0000
2023-01-30T07:23:43.618Z,740.0000
2023-01-30T07:24:46.008Z,741.0000
2023-01-30T07:25:46.262Z,739.0000
2023-01-30T07:26:48.681Z,742.0000
2023-01-30T07:27:51.043Z,737.0000
2023-01-30T07:28:53.460Z,739.0000
2023-01-30T07:29:55.932Z,741.0000
2023-01-30T07:30:56.389Z,742.0000
2023-01-30T07:31:58.736Z,746.0000
2023-01-30T07:32:58.988Z,750.0000
2023-01-30T07:34:01.340Z,757.0000
2023-01-30T07:35:05.928Z,761.0000
2023-01-30T07:36:03.986Z,765.0000
2023-01-30T07:37:06.407Z,766.0000
2023-01-30T07:38:08.845Z,763.0000
2023-01-30T07:39:09.098Z,761.0000
2023-01-30T07:40:11.519Z,756.0000
2023-01-30T07:41:13.903Z,761.0000
2023-01-30T07:42:16.325Z,759.0000
2023-01-30T07:43:18.783Z,761.0000
2023-01-30T07:44:19.048Z,759.0000
2023-01-30T07:45:21.468Z,756.0000
2023-01-30T07:46:21.756Z,755.0000
2023-01-30T07:47:24.168Z,754.0000
2023-01-30T07:48:26.642Z,754.0000
2023-01-30T07:49:26.902Z,750.0000
2023-01-30T07:50:29.322Z,749.0000
2023-01-30T07:51:31.755Z,746.0000
2023-01-30T07:52:34.110Z,746.0000
2023-01-30T07:53:36.543Z,741.0000
2023-01-30T07:54:36.761Z,737.0000
2023-01-30T07:55:39.117Z,731.0000
2023-01-30T07:56:41.509Z,728.0000
2023-01-30T07:57:41.748Z,723.0000
2023-01-30T07:58:44.212Z,722.0000
2023-01-30T07:59:46.616Z,720.0000
2023-01-30T08:00:49.043Z,720.0000
2023-01-30T08:01:51.408Z,719.0000
2023-01-30T08:02:51.685Z,716.0000
2023-01-30T08:03:54.103Z,713.0000
2023-01-30T08:04:56.552Z,709.0000
2023-01-30T08:05:56.675Z,709.0000
2023-01-30T08:06:59.073Z,708.0000
2023-01-30T08:08:01.387Z,709.0000
2023-01-30T08:09:01.636Z,708.0000
2023-01-30T08:10:04.023Z,702.0000
2023-01-30T08:11:06.457Z,699.0000
2023-01-30T08:12:08.815Z,699.0000
2023-01-30T08:13:11.205Z,699.0000
2023-01-30T08:14:11.487Z,700.0000
2023-01-30T08:15:13.871Z,699.0000
2023-01-30T08:16:16.329Z,695.0000
2023-01-30T08:17:16.578Z,692.0000
2023-01-30T08:18:19.003Z,692.0000
2023-01-30T08:19:21.344Z,693.0000
2023-01-30T08:20:21.840Z,690.0000
2023-01-30T08:21:23.776Z,687.0000
2023-01-30T08:22:26.079Z,682.0000
2023-01-30T08:23:28.344Z,680.0000
2023-01-30T08:24:30.656Z,678.0000
2023-01-30T08:25:32.842Z,678.0000
2023-01-30T08:26:35.191Z,679.0000
2023-01-30T08:27:35.315Z,682.0000
2023-01-30T08:28:37.632Z,682.0000
2023-01-30T08:31:10.477Z,663.0000
2023-01-30T08:32:14.775Z,663.0000
2023-01-30T08:33:15.155Z,660.0000
2023-01-30T08:34:17.557Z,658.0000
2023-01-30T08:35:17.778Z,657.0000
2023-01-30T08:36:20.217Z,657.0000
2023-01-30T08:37:22.571Z,657.0000
2023-01-30T08:38:25.046Z,656.0000
2023-01-30T08:39:25.211Z,654.0000
2023-01-30T08:40:27.682Z,652.0000
2023-01-30T08:41:30.047Z,651.0000
2023-01-30T08:42:32.425Z,651.0000
2023-01-30T08:43:32.588Z,652.0000
2023-01-30T08:44:34.997Z,652.0000
2023-01-30T08:45:37.382Z,651.0000
2023-01-30T08:46:39.885Z,650.0000
2023-01-30T08:47:42.168Z,647.0000
2023-01-30T08:48:49.427Z,647.0000
2023-01-30T08:49:44.848Z,645.0000
2023-01-30T08:50:47.136Z,642.0000
2023-01-30T08:51:49.526Z,641.0000
2023-01-30T08:52:49.748Z,638.0000
2023-01-30T08:53:52.148Z,638.0000
2023-01-30T08:54:54.508Z,634.0000
2023-01-30T08:55:56.959Z,632.0000
2023-01-30T08:56:57.239Z,632.0000
2023-01-30T08:57:59.634Z,630.0000
2023-01-30T08:59:02.036Z,629.0000
2023-01-30T09:00:04.411Z,629.0000
2023-01-30T09:01:04.680Z,629.0000
2023-01-30T09:02:07.133Z,627.0000
2023-01-30T09:03:09.472Z,625.0000
2023-01-30T09:04:11.887Z,624.0000
2023-01-30T09:05:12.193Z,624.0000
2023-01-30T09:06:14.599Z,625.0000
2023-01-30T09:07:17.072Z,623.0000
2023-01-30T09:08:17.290Z,621.0000
2023-01-30T09:09:19.728Z,618.0000
2023-01-30T09:10:22.098Z,618.0000
2023-01-30T09:11:24.470Z,616.0000
2023-01-30T09:12:24.718Z,616.0000
2023-01-30T09:13:27.085Z,617.0000
2023-01-30T09:14:29.492Z,617.0000
2023-01-30T09:15:31.871Z,615.0000
2023-01-30T09:16:32.136Z,614.0000
2023-01-30T09:17:34.560Z,614.0000
2023-01-30T09:18:36.970Z,612.0000
2023-01-30T09:19:39.365Z,611.0000
2023-01-30T09:20:39.613Z,610.0000
2023-01-30T09:21:42.022Z,604.0000
2023-01-30T09:22:44.428Z,606.0000
2023-01-30T09:23:46.825Z,606.0000
2023-01-30T09:24:47.105Z,607.0000
2023-01-30T09:25:49.521Z,606.0000
2023-01-30T09:26:49.898Z,603.0000
2023-01-30T09:27:52.258Z,605.0000
2023-01-30T09:28:52.468Z,607.0000
2023-01-30T09:29:54.864Z,607.0000
2023-01-30T09:30:57.390Z,601.0000
2023-01-30T09:31:59.611Z,599.0000
2023-01-30T09:32:59.794Z,599.0000
2023-01-30T09:34:02.129Z,596.0000
2023-01-30T09:35:04.477Z,595.0000
2023-01-30T09:36:06.885Z,595.0000
2023-01-30T09:37:09.204Z,593.0000
2023-01-30T09:38:09.441Z,593.0000
2023-01-30T09:39:11.756Z,593.0000
2023-01-30T09:40:14.147Z,591.0000
2023-01-30T09:41:16.492Z,591.0000
2023-01-30T09:42:16.712Z,592.0000
2023-01-30T09:43:19.096Z,590.0000
2023-01-30T09:44:21.443Z,589.0000
2023-01-30T09:45:23.793Z,589.0000
2023-01-30T09:46:26.242Z,590.0000
2023-01-30T09:47:28.536Z,588.0000
2023-01-30T09:48:30.922Z,588.0000
2023-01-30T09:49:33.262Z,584.0000
2023-01-30T09:50:35.643Z,586.0000
2023-01-30T09:51:35.861Z,590.0000
2023-01-30T09:52:38.241Z,589.0000
2023-01-30T09:53:40.685Z,589.0000
2023-01-30T09:54:42.910Z,587.0000
2023-01-30T09:55:45.215Z,585.0000
2023-01-30T09:56:45.333Z,586.0000
2023-01-30T09:57:47.676Z,584.0000
2023-01-30T09:58:50.082Z,584.0000
2023-01-30T09:59:52.380Z,583.0000
2023-01-30T10:01:48.586Z,562.0000
2023-01-30T10:02:50.851Z,564.0000
2023-01-30T10:03:53.229Z,564.0000
2023-01-30T10:05:01.235Z,566.0000
2023-01-30T10:05:55.829Z,567.0000
2023-01-30T10:06:58.145Z,568.0000
2023-01-30T10:08:02.675Z,569.0000
2023-01-30T10:08:54.334Z,569.0000
2023-01-30T10:09:56.561Z,570.0000
2023-01-30T10:11:09.526Z,567.0000
2023-01-30T10:12:01.186Z,567.0000
2023-01-30T10:13:03.507Z,568.0000
2023-01-30T10:14:05.834Z,567.0000
2023-01-30T10:15:08.092Z,564.0000
2023-01-30T10:16:08.265Z,563.0000
2023-01-30T10:17:10.499Z,561.0000
2023-01-30T10:18:12.835Z,561.0000
2023-01-30T10:19:20.567Z,561.0000
2023-01-30T10:20:17.445Z,563.0000
2023-01-30T10:21:19.818Z,562.0000
2023-01-30T10:22:19.999Z,564.0000
2023-01-30T10:23:22.343Z,564.0000
2023-01-30T10:24:24.794Z,559.0000
2023-01-30T10:25:27.090Z,559.0000
2023-01-30T10:26:29.542Z,562.0000
2023-01-30T10:27:29.667Z,563.0000
2023-01-30T10:28:32.039Z,562.0000
2023-01-30T10:29:34.407Z,561.0000
2023-01-30T10:30:36.751Z,564.0000
2023-01-30T10:31:39.230Z,562.0000
2023-01-30T10:32:39.292Z,561.0000
2023-01-30T10:33:41.655Z,560.0000
2023-01-30T10:34:44.048Z,560.0000
2023-01-30T10:35:46.423Z,555.0000
2023-01-30T10:36:48.798Z,553.0000
2023-01-30T10:37:49.035Z,553.0000
2023-01-30T10:38:51.418Z,553.0000
2023-01-30T10:39:55.610Z,553.0000
2023-01-30T10:40:56.201Z,553.0000
2023-01-30T10:41:56.479Z,552.0000
2023-01-30T10:42:58.875Z,552.0000
2023-01-30T10:44:01.245Z,552.0000
2023-01-30T10:45:01.591Z,551.0000
2023-01-30T10:46:03.882Z,551.0000
2023-01-30T10:47:06.294Z,553.0000
2023-01-30T10:48:08.699Z,552.0000
2023-01-30T10:49:08.902Z,549.0000
2023-01-30T10:50:11.320Z,547.0000
2023-01-30T10:51:13.706Z,544.0000
2023-01-30T10:52:16.109Z,546.0000
2023-01-30T10:53:16.332Z,546.0000
2023-01-30T10:54:19.964Z,547.0000
2023-01-30T10:55:36.053Z,548.0000
2023-01-30T10:56:23.435Z,547.0000
2023-01-30T10:57:23.648Z,545.0000
2023-01-30T10:58:25.961Z,542.0000
2023-01-30T10:59:28.322Z,540.0000
2023-01-30T11:00:30.748Z,541.0000
2023-01-30T11:01:33.115Z,544.0000
2023-01-30T11:02:33.297Z,546.0000
2023-01-30T11:03:35.651Z,547.0000
2023-01-30T11:04:37.997Z,549.0000
2023-01-30T11:05:40.380Z,548.0000
2023-01-30T11:06:42.705Z,552.0000
2023-01-30T11:07:45.080Z,551.0000
2023-01-30T11:08:45.282Z,550.0000
2023-01-30T11:09:47.653Z,550.0000
2023-01-30T11:10:50.021Z,551.0000
2023-01-30T11:11:50.200Z,548.0000
2023-01-30T11:12:52.577Z,544.0000
2023-01-30T11:13:54.924Z,548.0000
2023-01-30T11:14:57.274Z,559.0000
2023-01-30T11:15:59.723Z,554.0000
2023-01-30T11:16:59.850Z,553.0000
2023-01-30T11:18:22.777Z,549.0000
2023-01-30T11:19:21.826Z,546.0000
2023-01-30T11:20:04.750Z,550.0000
2023-01-30T11:21:09.245Z,547.0000
2023-01-30T11:22:09.419Z,550.0000
2023-01-30T11:23:11.718Z,553.0000
2023-01-30T11:24:14.088Z,555.0000
2023-01-30T11:25:16.833Z,556.0000
2023-01-30T11:26:16.726Z,561.0000
2023-01-30T11:27:18.987Z,560.0000
2023-01-30T11:28:21.336Z,562.0000
2023-01-30T11:29:23.654Z,564.0000
2023-01-30T11:30:23.894Z,563.0000
2023-01-30T11:31:40.496Z,563.0000
2023-01-30T11:32:15.842Z,567.0000
2023-01-30T11:33:18.068Z,566.0000
2023-01-30T11:34:18.289Z,564.0000
2023-01-30T11:35:20.621Z,564.0000
2023-01-30T11:36:22.976Z,564.0000
2023-01-30T11:37:25.373Z,563.0000
2023-01-30T11:38:27.700Z,562.0000
2023-01-30T11:39:27.924Z,561.0000
2023-01-30T11:40:30.283Z,562.0000
2023-01-30T11:41:32.648Z,559.0000
2023-01-30T11:42:34.994Z,559.0000
2023-01-30T11:43:37.321Z,558.0000
2023-01-30T11:44:37.514Z,555.0000
2023-01-30T11:45:39.923Z,555.0000
2023-01-30T11:46:42.349Z,553.0000
2023-01-30T11:47:50.787Z,555.0000
2023-01-30T11:49:03.261Z,553.0000
2023-01-30T11:50:07.653Z,552.0000
2023-01-30T11:50:50.271Z,548.0000
2023-01-30T11:51:51.887Z,548.0000
2023-01-30T11:52:54.268Z,548.0000
2023-01-30T11:53:56.612Z,547.0000
2023-01-30T11:54:56.833Z,549.0000
2023-01-30T11:56:05.180Z,550.0000
2023-01-30T11:57:01.573Z,549.0000
2023-01-30T11:58:03.980Z,549.0000
2023-01-30T11:59:04.158Z,547.0000
2023-01-30T12:00:06.492Z,547.0000
2023-01-30T12:01:08.866Z,547.0000
2023-01-30T12:02:11.236Z,544.0000
2023-01-30T12:03:13.584Z,546.0000
2023-01-30T12:04:13.751Z,545.0000
2023-01-30T12:05:16.089Z,544.0000
2023-01-30T12:06:18.401Z,545.0000
2023-01-30T12:07:20.759Z,540.0000
2023-01-30T12:08:40.291Z,539.0000